Time;durP1;ratioP1;P1;durP2;ratioP2;P2;SDS_P1;SDS_P2;PMS_P1;PMS_P2;Temp;Humidity;BMP_temperature;BMP_pressure;BME280_temperature;BME280_humidity;BME280_pressure;Samples;Min_cycle;Max_cycle;Signal;HPM_P1;HPM_P2
2023/04/12 00:00:53;;;;;;;;;;;10.60;61.10;;;;;;5054024;28;20305;-83
2023/04/12 00:03:19;;;;;;;;;;;10.60;61.40;;;;;;5051525;28;19955;-83
2023/04/12 00:05:45;;;;;;;;;;;10.70;61.10;;;;;;5053469;28;19944;-83
2023/04/12 00:08:11;;;;;;;;;;;10.70;61.70;;;;;;5053921;28;19916;-83
2023/04/12 00:10:37;;;;;;;;;;;10.60;61.80;;;;;;5057668;28;19908;-83
2023/04/12 00:13:02;;;;;;;;;;;10.60;61.90;;;;;;5056533;28;19980;-83
2023/04/12 00:15:28;;;;;;;;;;;10.60;61.30;;;;;;5055252;28;20007;-83
2023/04/12 00:17:53;;;;;;;;;;;10.60;62.20;;;;;;5055037;28;19972;-83
2023/04/12 00:20:18;;;;;;;;;;;10.60;61.60;;;;;;5036019;28;19918;-83
2023/04/12 00:22:44;;;;;;;;;;;10.50;61.90;;;;;;5034107;28;19909;-83
2023/04/12 00:25:09;;;;;;;;;;;10.40;62.60;;;;;;5034832;28;19951;-83
2023/04/12 00:27:35;;;;;;;;;;;10.50;63.10;;;;;;5051457;28;20000;-83
2023/04/12 00:30:01;;;;;;;;;;;10.60;61.80;;;;;;5043082;28;20410;-83
2023/04/12 00:32:27;;;;;;;;;;;10.60;61.90;;;;;;5046749;28;19917;-83
2023/04/12 00:34:52;;;;;;;;;;;10.60;61.70;;;;;;5061517;28;19909;-83
2023/04/12 00:37:17;;;;;;;;;;;10.50;62.30;;;;;;5062833;28;20305;-83
2023/04/12 00:39:43;;;;;;;;;;;10.50;62.50;;;;;;5061938;28;20471;-83
2023/04/12 00:42:08;;;;;;;;;;;10.30;62.40;;;;;;5062266;28;19908;-83
2023/04/12 00:44:34;;;;;;;;;;;10.40;62.70;;;;;;5059988;28;20285;-83
2023/04/12 00:47:00;;;;;;;;;;;10.30;63.50;;;;;;5062884;28;19908;-83
2023/04/12 00:49:29;;;;;;;;;;;10.50;63.00;;;;;;5061026;28;19920;-83
2023/04/12 00:52:02;;;;;;;;;;;10.40;62.50;;;;;;5059283;28;19909;-83
2023/04/12 00:54:28;;;;;;;;;;;10.40;62.60;;;;;;5060060;28;19921;-83
2023/04/12 00:56:56;;;;;;;;;;;10.50;62.80;;;;;;5062781;28;20405;-83
2023/04/12 00:59:22;;;;;;;;;;;10.40;63.10;;;;;;5077696;28;19920;-83
2023/04/12 01:01:48;;;;;;;;;;;10.50;63.20;;;;;;5059206;28;19917;-83
2023/04/12 01:04:13;;;;;;;;;;;10.50;62.80;;;;;;5065704;28;19975;-83
2023/04/12 01:07:00;;;;;;;;;;;10.40;63.30;;;;;;5044637;28;19913;-83
2023/04/12 01:09:29;;;;;;;;;;;10.30;63.40;;;;;;5039730;28;19910;-83
2023/04/12 01:12:01;;;;;;;;;;;10.40;63.80;;;;;;5039007;28;19909;-83
2023/04/12 01:14:26;;;;;;;;;;;10.50;63.40;;;;;;5039375;28;19944;-83
2023/04/12 01:16:55;;;;;;;;;;;10.30;64.20;;;;;;5039866;28;19963;-83
2023/04/12 01:19:35;;;;;;;;;;;10.20;64.20;;;;;;5046504;28;20314;-83
2023/04/12 01:22:27;;;;;;;;;;;10.20;65.40;;;;;;5058377;28;19995;-83
2023/04/12 01:25:10;;;;;;;;;;;10.20;65.40;;;;;;5053786;28;19940;-83
2023/04/12 01:27:45;;;;;;;;;;;10.20;65.80;;;;;;5068023;28;19908;-83
2023/04/12 01:30:12;;;;;;;;;;;10.10;66.20;;;;;;5059650;28;20354;-83
2023/04/12 01:32:39;;;;;;;;;;;10.30;66.20;;;;;;5060119;28;19920;-83
2023/04/12 01:35:07;;;;;;;;;;;10.40;66.20;;;;;;5074694;28;19914;-83
2023/04/12 01:37:33;;;;;;;;;;;10.50;66.00;;;;;;5059030;28;19915;-83
2023/04/12 01:39:59;;;;;;;;;;;10.40;66.60;;;;;;5058009;28;19913;-83
2023/04/12 01:42:24;;;;;;;;;;;10.40;66.70;;;;;;5057837;28;19916;-83
2023/04/12 01:44:50;;;;;;;;;;;10.30;67.50;;;;;;5064503;28;19916;-83
2023/04/12 01:47:15;;;;;;;;;;;10.50;67.10;;;;;;5058338;28;19909;-83
2023/04/12 01:50:07;;;;;;;;;;;10.30;67.80;;;;;;5055760;28;19930;-83
2023/04/12 01:52:35;;;;;;;;;;;10.30;67.70;;;;;;5030596;28;20059;-83
2023/04/12 01:55:03;;;;;;;;;;;10.20;68.60;;;;;;5059340;28;19917;-83
2023/04/12 01:57:29;;;;;;;;;;;10.20;69.10;;;;;;5056724;28;19909;-83
2023/04/12 01:59:55;;;;;;;;;;;10.10;69.30;;;;;;5054788;28;19912;-83
2023/04/12 02:02:21;;;;;;;;;;;10.10;69.50;;;;;;5058417;28;19913;-83
2023/04/12 02:04:46;;;;;;;;;;;10.10;69.80;;;;;;5058883;28;19916;-83
2023/04/12 02:07:12;;;;;;;;;;;10.20;69.50;;;;;;5054512;28;19908;-83
2023/04/12 02:09:38;;;;;;;;;;;10.30;69.60;;;;;;5056343;28;19955;-83
2023/04/12 02:12:04;;;;;;;;;;;10.10;70.40;;;;;;5051019;28;20290;-83
2023/04/12 02:14:30;;;;;;;;;;;10.10;71.00;;;;;;5051102;28;20003;-83
2023/04/12 02:16:56;;;;;;;;;;;10.00;71.40;;;;;;5062810;28;19955;-83
2023/04/12 02:19:22;;;;;;;;;;;9.80;72.10;;;;;;5054806;28;19913;-83
2023/04/12 02:21:48;;;;;;;;;;;9.80;72.20;;;;;;5055559;28;20047;-83
2023/04/12 02:24:14;;;;;;;;;;;10.00;71.90;;;;;;5056291;28;19912;-83
2023/04/12 02:26:40;;;;;;;;;;;9.90;72.40;;;;;;5055621;28;19913;-82
2023/04/12 02:29:08;;;;;;;;;;;9.70;73.00;;;;;;5052711;28;19970;-83
2023/04/12 02:31:35;;;;;;;;;;;9.80;72.70;;;;;;5052016;28;20015;-82
2023/04/12 02:34:01;;;;;;;;;;;9.70;73.20;;;;;;5054170;28;19920;-82
2023/04/12 02:36:26;;;;;;;;;;;9.60;73.30;;;;;;5051129;28;19913;-82
2023/04/12 02:38:52;;;;;;;;;;;9.70;73.40;;;;;;5052352;28;20291;-82
2023/04/12 02:41:18;;;;;;;;;;;9.70;73.30;;;;;;5061837;28;20417;-82
2023/04/12 02:43:43;;;;;;;;;;;9.80;73.30;;;;;;5052246;28;19912;-82
2023/04/12 02:46:09;;;;;;;;;;;9.80;73.20;;;;;;5053021;28;20378;-83
2023/04/12 02:48:34;;;;;;;;;;;9.80;73.20;;;;;;5067135;23;19938;-82
2023/04/12 02:51:00;;;;;;;;;;;9.80;73.20;;;;;;5026071;28;20283;-82
2023/04/12 02:53:25;;;;;;;;;;;9.80;73.40;;;;;;5032160;28;19975;-82
2023/04/12 02:55:51;;;;;;;;;;;9.70;73.30;;;;;;5048657;28;20274;-82
2023/04/12 02:58:16;;;;;;;;;;;9.70;73.30;;;;;;5037531;28;19914;-82
2023/04/12 03:00:42;;;;;;;;;;;9.70;73.30;;;;;;5039292;28;20013;-83
2023/04/12 03:03:08;;;;;;;;;;;9.60;73.70;;;;;;5037315;28;19909;-83
2023/04/12 03:05:33;;;;;;;;;;;9.70;73.70;;;;;;5029936;28;20389;-83
2023/04/12 03:07:59;;;;;;;;;;;9.60;73.50;;;;;;5033304;28;19909;-82
2023/04/12 03:10:24;;;;;;;;;;;9.60;73.80;;;;;;5035072;28;19949;-83
2023/04/12 03:12:50;;;;;;;;;;;9.70;73.60;;;;;;5037217;28;19913;-83
2023/04/12 03:15:16;;;;;;;;;;;9.70;73.50;;;;;;5033655;28;19909;-82
2023/04/12 03:17:42;;;;;;;;;;;9.70;73.80;;;;;;5037069;28;19909;-82
2023/04/12 03:20:08;;;;;;;;;;;9.70;73.80;;;;;;5033250;28;20012;-82
2023/04/12 03:22:35;;;;;;;;;;;9.70;73.90;;;;;;5036666;28;19985;-82
2023/04/12 03:25:01;;;;;;;;;;;9.60;74.30;;;;;;5033878;28;20342;-83
2023/04/12 03:27:27;;;;;;;;;;;9.60;74.60;;;;;;5034682;28;20506;-83
2023/04/12 03:29:52;;;;;;;;;;;9.60;74.50;;;;;;5035521;28;19913;-81
2023/04/12 03:32:18;;;;;;;;;;;9.50;74.70;;;;;;5034091;28;20713;-82
2023/04/12 03:34:44;;;;;;;;;;;9.40;75.10;;;;;;5033811;28;20280;-82
2023/04/12 03:37:09;;;;;;;;;;;9.50;74.80;;;;;;5031552;28;19917;-82
2023/04/12 03:39:35;;;;;;;;;;;9.50;74.90;;;;;;5034500;28;19913;-82
2023/04/12 03:42:00;;;;;;;;;;;9.50;75.10;;;;;;5035042;28;19913;-83
2023/04/12 03:44:26;;;;;;;;;;;9.60;74.60;;;;;;5034206;28;19913;-82
2023/04/12 03:46:51;;;;;;;;;;;9.50;74.80;;;;;;5035041;28;20039;-82
2023/04/12 03:49:17;;;;;;;;;;;9.30;75.10;;;;;;5034363;28;20055;-83
2023/04/12 03:51:42;;;;;;;;;;;9.30;75.20;;;;;;5032942;28;20505;-82
2023/04/12 03:54:09;;;;;;;;;;;9.50;74.80;;;;;;5032163;28;19921;-81
2023/04/12 03:56:34;;;;;;;;;;;9.30;74.80;;;;;;5040432;28;20264;-80
2023/04/12 03:58:59;;;;;;;;;;;9.40;74.70;;;;;;5033656;28;19909;-83
2023/04/12 04:01:25;;;;;;;;;;;9.30;75.20;;;;;;5034457;28;19959;-83
2023/04/12 04:03:51;;;;;;;;;;;9.30;75.10;;;;;;5035754;28;19919;-82
2023/04/12 04:06:16;;;;;;;;;;;9.30;75.40;;;;;;5035033;28;20004;-83
2023/04/12 04:08:43;;;;;;;;;;;9.40;75.00;;;;;;5031468;28;20439;-83
2023/04/12 04:11:08;;;;;;;;;;;9.50;74.60;;;;;;5032477;28;19920;-82
2023/04/12 04:13:34;;;;;;;;;;;9.40;75.00;;;;;;5034041;28;20383;-83
2023/04/12 04:16:04;;;;;;;;;;;9.50;74.80;;;;;;5032776;28;19916;-82
2023/04/12 04:18:30;;;;;;;;;;;9.60;74.30;;;;;;5032341;28;19913;-83
2023/04/12 04:20:55;;;;;;;;;;;9.60;74.50;;;;;;5028871;28;19918;-82
2023/04/12 04:23:22;;;;;;;;;;;9.60;74.80;;;;;;5031148;28;19909;-82
2023/04/12 04:25:47;;;;;;;;;;;9.40;75.30;;;;;;5028798;28;19919;-82
2023/04/12 04:28:14;;;;;;;;;;;9.50;74.90;;;;;;5030161;28;19909;-83
2023/04/12 04:30:40;;;;;;;;;;;9.50;75.10;;;;;;5030128;28;19909;-83
2023/04/12 04:33:06;;;;;;;;;;;9.60;74.80;;;;;;5031826;28;19916;-82
2023/04/12 04:35:31;;;;;;;;;;;9.60;74.90;;;;;;5030818;28;20271;-82
2023/04/12 04:37:57;;;;;;;;;;;9.50;75.20;;;;;;5031505;28;20378;-82
2023/04/12 04:40:23;;;;;;;;;;;9.60;74.90;;;;;;5031319;28;20003;-83
2023/04/12 04:42:56;;;;;;;;;;;9.50;75.10;;;;;;5022534;28;19948;-82
2023/04/12 04:45:25;;;;;;;;;;;9.50;75.10;;;;;;5021778;28;19974;-83
2023/04/12 04:47:52;;;;;;;;;;;9.40;75.60;;;;;;5031336;28;19913;-82
2023/04/12 04:50:18;;;;;;;;;;;9.50;75.50;;;;;;5029933;28;19918;-83
2023/04/12 04:52:43;;;;;;;;;;;9.50;75.20;;;;;;5029820;28;19910;-83
2023/04/12 04:55:09;;;;;;;;;;;9.60;75.40;;;;;;5031275;28;19909;-82
2023/04/12 04:57:35;;;;;;;;;;;9.60;75.30;;;;;;5017317;28;19925;-81
2023/04/12 05:00:01;;;;;;;;;;;9.60;75.40;;;;;;5026133;28;19966;-82
2023/04/12 05:02:27;;;;;;;;;;;9.60;75.60;;;;;;5030115;28;19916;-83
2023/04/12 05:04:55;;;;;;;;;;;9.60;75.70;;;;;;5029591;28;20510;-82
2023/04/12 05:07:20;;;;;;;;;;;9.60;76.20;;;;;;5029782;28;20521;-83
2023/04/12 05:09:46;;;;;;;;;;;9.50;76.50;;;;;;5031054;28;19935;-82
2023/04/12 05:12:11;;;;;;;;;;;9.60;76.10;;;;;;5030858;28;20395;-83
2023/04/12 05:14:38;;;;;;;;;;;9.50;76.50;;;;;;5031416;28;19913;-82
2023/04/12 05:17:04;;;;;;;;;;;9.50;76.70;;;;;;5035337;28;20439;-83
2023/04/12 05:19:30;;;;;;;;;;;9.60;76.30;;;;;;5033427;28;19921;-83
2023/04/12 05:21:56;;;;;;;;;;;9.60;76.40;;;;;;5045247;28;19910;-82
2023/04/12 05:24:22;;;;;;;;;;;9.60;76.40;;;;;;5039400;28;19909;-84
2023/04/12 05:26:47;;;;;;;;;;;9.60;77.00;;;;;;5037865;28;20397;-83
2023/04/12 05:29:12;;;;;;;;;;;9.60;77.90;;;;;;5034088;28;19921;-83
2023/04/12 05:31:38;;;;;;;;;;;9.50;78.30;;;;;;5030273;28;20286;-84
2023/04/12 05:34:03;;;;;;;;;;;9.40;79.40;;;;;;5035001;28;20243;-82
2023/04/12 05:36:29;;;;;;;;;;;9.30;79.40;;;;;;5036282;28;19945;-84
2023/04/12 05:38:54;;;;;;;;;;;9.50;79.80;;;;;;5035035;28;19916;-83
2023/04/12 05:41:20;;;;;;;;;;;9.50;79.50;;;;;;5036827;28;20358;-83
2023/04/12 05:43:45;;;;;;;;;;;9.40;80.10;;;;;;5034634;28;19960;-83
2023/04/12 05:46:11;;;;;;;;;;;9.30;81.00;;;;;;5033400;28;19961;-83
2023/04/12 05:48:37;;;;;;;;;;;9.30;81.70;;;;;;5052577;28;19932;-84
2023/04/12 05:51:04;;;;;;;;;;;9.30;81.60;;;;;;5040224;28;19996;-83
2023/04/12 05:53:31;;;;;;;;;;;9.20;82.20;;;;;;5037009;28;19979;-83
2023/04/12 05:55:57;;;;;;;;;;;9.20;82.50;;;;;;5037836;28;19951;-83
2023/04/12 05:58:22;;;;;;;;;;;9.10;83.30;;;;;;5035711;28;19909;-83
2023/04/12 06:00:48;;;;;;;;;;;9.10;83.50;;;;;;5034794;28;20345;-84
2023/04/12 06:03:14;;;;;;;;;;;9.10;83.30;;;;;;5031308;28;19913;-84
2023/04/12 06:05:39;;;;;;;;;;;9.10;83.80;;;;;;5035271;28;19916;-84
2023/04/12 06:08:05;;;;;;;;;;;9.10;83.60;;;;;;5039437;28;19976;-83
2023/04/12 06:10:30;;;;;;;;;;;9.00;84.20;;;;;;5033658;28;19913;-83
2023/04/12 06:12:56;;;;;;;;;;;9.00;84.20;;;;;;5034008;28;20021;-84
2023/04/12 06:15:21;;;;;;;;;;;9.00;84.40;;;;;;5032987;28;19909;-82
2023/04/12 06:17:47;;;;;;;;;;;9.00;84.30;;;;;;5030992;28;19936;-83
2023/04/12 06:20:12;;;;;;;;;;;9.10;84.20;;;;;;5032334;28;19960;-83
2023/04/12 06:22:37;;;;;;;;;;;9.10;84.60;;;;;;5033778;28;19916;-83
2023/04/12 06:25:03;;;;;;;;;;;9.10;84.40;;;;;;5031864;28;20329;-83
2023/04/12 06:27:29;;;;;;;;;;;9.10;84.30;;;;;;5033949;28;19916;-84
2023/04/12 06:29:54;;;;;;;;;;;9.10;84.60;;;;;;5031650;28;19909;-83
2023/04/12 06:32:20;;;;;;;;;;;9.20;84.90;;;;;;5033143;28;20000;-84
2023/04/12 06:34:46;;;;;;;;;;;9.30;83.90;;;;;;5032333;28;20086;-84
2023/04/12 06:37:11;;;;;;;;;;;9.30;84.40;;;;;;5033009;28;19913;-84
2023/04/12 06:39:37;;;;;;;;;;;9.30;84.70;;;;;;5034431;28;19913;-84
2023/04/12 06:42:02;;;;;;;;;;;9.20;84.90;;;;;;5035142;28;19915;-83
2023/04/12 06:44:28;;;;;;;;;;;9.40;84.30;;;;;;5037033;28;19948;-82
2023/04/12 06:46:53;;;;;;;;;;;9.20;84.60;;;;;;5036090;28;19995;-83
2023/04/12 06:49:18;;;;;;;;;;;9.20;85.00;;;;;;5033779;28;19924;-82
2023/04/12 06:51:44;;;;;;;;;;;9.20;85.60;;;;;;5026639;28;19963;-83
2023/04/12 06:54:10;;;;;;;;;;;9.30;85.10;;;;;;5035293;28;20318;-83
2023/04/12 06:56:36;;;;;;;;;;;9.20;85.50;;;;;;5034002;28;20370;-83
2023/04/12 06:59:02;;;;;;;;;;;9.30;85.80;;;;;;5032921;28;19916;-84
2023/04/12 07:01:27;;;;;;;;;;;9.30;85.60;;;;;;5033907;28;19959;-84
2023/04/12 07:03:53;;;;;;;;;;;9.30;85.40;;;;;;5033594;28;20299;-83
2023/04/12 07:06:18;;;;;;;;;;;9.50;85.70;;;;;;5033851;28;20008;-83
2023/04/12 07:08:43;;;;;;;;;;;9.60;84.90;;;;;;5033602;28;20044;-83
2023/04/12 07:11:09;;;;;;;;;;;9.60;84.90;;;;;;5029637;28;19913;-83
2023/04/12 07:13:35;;;;;;;;;;;9.60;85.20;;;;;;5042044;28;19909;-82
2023/04/12 07:16:00;;;;;;;;;;;9.60;85.20;;;;;;5040864;28;20085;-83
2023/04/12 07:18:26;;;;;;;;;;;9.60;85.30;;;;;;5034461;28;20281;-82
2023/04/12 07:20:53;;;;;;;;;;;9.60;85.20;;;;;;5033134;28;19966;-82
2023/04/12 07:23:18;;;;;;;;;;;9.70;85.90;;;;;;5031781;28;20363;-83
2023/04/12 07:25:44;;;;;;;;;;;9.60;85.40;;;;;;5027272;28;19913;-82
2023/04/12 07:28:09;;;;;;;;;;;9.50;85.40;;;;;;5033982;28;19909;-82
2023/04/12 07:30:37;;;;;;;;;;;9.40;86.00;;;;;;5034636;28;19940;-82
2023/04/12 07:33:04;;;;;;;;;;;9.50;86.70;;;;;;5033482;28;20282;-83
2023/04/12 07:35:30;;;;;;;;;;;9.60;86.00;;;;;;5030539;28;19913;-82
2023/04/12 07:37:56;;;;;;;;;;;9.60;85.60;;;;;;5032710;28;19916;-83
2023/04/12 07:40:21;;;;;;;;;;;9.50;86.70;;;;;;5032013;28;19918;-83
2023/04/12 07:42:46;;;;;;;;;;;9.60;86.70;;;;;;5034908;28;19913;-83
2023/04/12 07:45:12;;;;;;;;;;;9.80;85.70;;;;;;5034765;28;19909;-81
2023/04/12 07:47:37;;;;;;;;;;;9.80;85.90;;;;;;5033956;28;19909;-85
2023/04/12 07:50:04;;;;;;;;;;;9.90;86.20;;;;;;5029382;28;19926;-83
2023/04/12 07:52:30;;;;;;;;;;;9.90;85.50;;;;;;5032708;28;19932;-82
2023/04/12 07:54:56;;;;;;;;;;;10.10;85.00;;;;;;5029942;28;20421;-82
2023/04/12 07:57:22;;;;;;;;;;;10.10;85.20;;;;;;5025969;28;19913;-82
2023/04/12 07:59:47;;;;;;;;;;;10.20;85.70;;;;;;5030259;28;19926;-82
2023/04/12 08:02:13;;;;;;;;;;;10.10;85.80;;;;;;5023757;28;19918;-82
2023/04/12 08:04:40;;;;;;;;;;;10.10;85.50;;;;;;5030318;28;19913;-81
2023/04/12 08:07:06;;;;;;;;;;;10.20;85.60;;;;;;5032509;28;19936;-81
2023/04/12 08:09:31;;;;;;;;;;;10.40;84.90;;;;;;5032139;28;19913;-82
2023/04/12 08:11:57;;;;;;;;;;;10.40;85.40;;;;;;5030487;28;19913;-81
2023/04/12 08:14:22;;;;;;;;;;;10.50;84.20;;;;;;5036358;28;19924;-83
2023/04/12 08:16:48;;;;;;;;;;;10.50;84.70;;;;;;5037041;28;19944;-83
2023/04/12 08:19:13;;;;;;;;;;;10.50;84.20;;;;;;5031596;28;20044;-82
2023/04/12 08:21:39;;;;;;;;;;;10.40;84.10;;;;;;5033996;28;19921;-83
2023/04/12 08:24:04;;;;;;;;;;;10.20;84.20;;;;;;5031429;28;20355;-83
2023/04/12 08:26:30;;;;;;;;;;;10.30;84.30;;;;;;5029108;28;19914;-82
2023/04/12 08:28:57;;;;;;;;;;;10.20;84.40;;;;;;5027474;28;19920;-83
2023/04/12 08:31:22;;;;;;;;;;;10.20;85.10;;;;;;5034370;28;19913;-84
2023/04/12 08:33:48;;;;;;;;;;;10.20;85.70;;;;;;5029273;28;20363;-84
2023/04/12 08:36:14;;;;;;;;;;;10.10;86.40;;;;;;5040853;28;19941;-83
2023/04/12 08:38:39;;;;;;;;;;;10.10;86.30;;;;;;5049301;28;19935;-83
2023/04/12 08:41:05;;;;;;;;;;;10.10;87.00;;;;;;5034231;28;20385;-83
2023/04/12 08:43:31;;;;;;;;;;;10.20;86.80;;;;;;5043145;28;19917;-83
2023/04/12 08:45:57;;;;;;;;;;;10.10;86.70;;;;;;5034611;28;19909;-84
2023/04/12 08:50:50;;;;;;;;;;;10.40;87.30;;;;;;5031011;23;1743780;-82
2023/04/12 08:53:16;;;;;;;;;;;10.50;86.70;;;;;;5055153;28;20345;-81
2023/04/12 08:55:45;;;;;;;;;;;10.60;86.60;;;;;;5040172;28;19963;-81
2023/04/12 08:58:13;;;;;;;;;;;10.70;86.90;;;;;;5036906;28;19915;-82
2023/04/12 09:00:39;;;;;;;;;;;10.90;86.60;;;;;;5036257;28;19913;-81
2023/04/12 09:03:05;;;;;;;;;;;11.10;86.20;;;;;;5047097;28;19959;-82
2023/04/12 09:05:30;;;;;;;;;;;11.10;85.50;;;;;;5052038;28;20403;-82
2023/04/12 09:07:56;;;;;;;;;;;11.10;85.60;;;;;;5057063;28;19917;-81
2023/04/12 09:10:32;;;;;;;;;;;11.10;85.60;;;;;;5055783;28;19963;-82
2023/04/12 09:12:58;;;;;;;;;;;11.10;85.40;;;;;;5055194;28;19909;-82
2023/04/12 09:15:24;;;;;;;;;;;11.00;85.10;;;;;;5071818;28;19909;-82
2023/04/12 09:18:01;;;;;;;;;;;11.00;85.30;;;;;;5056669;28;19920;-82
2023/04/12 09:20:26;;;;;;;;;;;11.00;85.20;;;;;;5055390;28;19917;-82
2023/04/12 09:22:54;;;;;;;;;;;10.80;85.00;;;;;;5048613;28;20026;-82
2023/04/12 09:25:34;;;;;;;;;;;10.90;85.40;;;;;;5055482;28;20251;-82
2023/04/12 09:27:59;;;;;;;;;;;11.10;84.60;;;;;;5054991;28;20212;-82
2023/04/12 09:30:25;;;;;;;;;;;11.10;84.80;;;;;;5056096;28;19915;-82
2023/04/12 09:32:52;;;;;;;;;;;11.10;85.40;;;;;;5057010;28;20332;-82
2023/04/12 09:35:17;;;;;;;;;;;11.30;85.40;;;;;;5055273;28;19955;-82
2023/04/12 09:37:43;;;;;;;;;;;11.30;85.70;;;;;;5053455;28;19913;-81
2023/04/12 09:40:09;;;;;;;;;;;11.20;84.90;;;;;;5069748;28;19919;-82
2023/04/12 09:42:55;;;;;;;;;;;11.20;85.40;;;;;;5053627;28;19908;-82
2023/04/12 09:45:21;;;;;;;;;;;11.00;85.60;;;;;;5056393;28;19912;-81
2023/04/12 09:47:47;;;;;;;;;;;11.00;85.60;;;;;;5061844;28;19913;-82
2023/04/12 09:50:19;;;;;;;;;;;11.10;85.70;;;;;;5066804;28;20267;-82
2023/04/12 09:52:44;;;;;;;;;;;11.20;85.80;;;;;;5055270;28;19909;-82
2023/04/12 09:55:10;;;;;;;;;;;11.40;85.80;;;;;;5057068;28;19916;-82
2023/04/12 09:57:43;;;;;;;;;;;11.50;85.80;;;;;;5055348;28;20035;-82
2023/04/12 10:00:18;;;;;;;;;;;11.60;86.00;;;;;;5061109;28;19917;-82
2023/04/12 10:02:48;;;;;;;;;;;11.70;85.90;;;;;;5055157;28;19909;-82
2023/04/12 10:05:18;;;;;;;;;;;11.60;85.80;;;;;;5055861;28;19913;-82
2023/04/12 10:07:44;;;;;;;;;;;11.50;85.30;;;;;;5055267;28;19909;-83
2023/04/12 10:10:14;;;;;;;;;;;11.60;85.70;;;;;;5059426;28;19913;-82
2023/04/12 10:12:40;;;;;;;;;;;11.60;85.30;;;;;;5041560;28;19913;-82
2023/04/12 10:15:11;;;;;;;;;;;11.40;85.10;;;;;;5034409;28;20392;-82
2023/04/12 10:18:07;;;;;;;;;;;11.30;86.00;;;;;;5035339;28;19909;-83
2023/04/12 10:20:32;;;;;;;;;;;11.40;86.80;;;;;;5017552;28;19914;-82
2023/04/12 10:22:58;;;;;;;;;;;11.70;86.90;;;;;;5043716;28;19919;-82
2023/04/12 10:25:25;;;;;;;;;;;11.90;87.20;;;;;;5055021;28;19916;-82
2023/04/12 10:27:51;;;;;;;;;;;12.20;87.40;;;;;;5053365;28;19919;-82
2023/04/12 10:30:32;;;;;;;;;;;12.40;86.70;;;;;;5053091;28;19909;-82
2023/04/12 10:33:03;;;;;;;;;;;12.60;86.30;;;;;;5053984;28;19916;-82
2023/04/12 10:35:29;;;;;;;;;;;12.90;85.70;;;;;;5053256;28;19932;-83
2023/04/12 10:37:59;;;;;;;;;;;13.10;84.40;;;;;;5069581;28;19909;-82
2023/04/12 10:40:24;;;;;;;;;;;13.00;83.80;;;;;;5053715;28;20290;-82
2023/04/12 10:43:10;;;;;;;;;;;13.10;84.40;;;;;;5051781;28;19931;-83
2023/04/12 10:45:35;;;;;;;;;;;13.10;83.40;;;;;;5052177;28;20278;-82
2023/04/12 10:48:02;;;;;;;;;;;12.80;83.30;;;;;;5054328;28;19913;-83
2023/04/12 10:50:29;;;;;;;;;;;12.80;83.20;;;;;;5055669;28;19924;-82
2023/04/12 10:53:14;;;;;;;;;;;12.80;83.20;;;;;;5039432;28;19923;-82
2023/04/12 10:55:41;;;;;;;;;;;12.90;83.90;;;;;;5048566;28;19916;-82
2023/04/12 10:58:10;;;;;;;;;;;13.10;84.50;;;;;;5044248;28;20405;-83
2023/04/12 11:00:54;;;;;;;;;;;13.20;83.00;;;;;;5033845;28;20446;-82
2023/04/12 11:03:20;;;;;;;;;;;13.20;82.20;;;;;;5032794;28;19909;-82
2023/04/12 11:05:59;;;;;;;;;;;13.10;82.20;;;;;;5033736;28;19909;-82
2023/04/12 11:08:26;;;;;;;;;;;12.90;81.40;;;;;;5032175;28;19909;-82
2023/04/12 11:10:57;;;;;;;;;;;12.80;81.30;;;;;;5055421;28;19927;-82
2023/04/12 11:13:25;;;;;;;;;;;12.70;82.10;;;;;;5032360;28;19909;-82
2023/04/12 11:16:00;;;;;;;;;;;12.60;82.40;;;;;;5032157;28;19940;-82
2023/04/12 11:18:25;;;;;;;;;;;12.60;82.90;;;;;;5034635;28;19909;-82
2023/04/12 11:20:51;;;;;;;;;;;12.60;82.10;;;;;;5049123;28;19943;-82
2023/04/12 11:23:17;;;;;;;;;;;12.50;82.30;;;;;;5052365;28;20413;-82
2023/04/12 11:25:43;;;;;;;;;;;12.30;82.80;;;;;;5052907;28;19948;-83
2023/04/12 11:28:08;;;;;;;;;;;12.10;83.70;;;;;;5053717;28;19955;-83
2023/04/12 11:30:33;;;;;;;;;;;12.00;85.50;;;;;;5071766;28;19934;-83
2023/04/12 11:32:59;;;;;;;;;;;11.90;85.70;;;;;;5073876;28;19969;-82
2023/04/12 11:35:29;;;;;;;;;;;11.60;86.10;;;;;;5054419;28;19916;-82
2023/04/12 11:37:56;;;;;;;;;;;11.60;86.70;;;;;;5046010;28;19913;-83
2023/04/12 11:40:22;;;;;;;;;;;11.50;86.60;;;;;;5053264;28;19927;-82
2023/04/12 11:42:47;;;;;;;;;;;11.50;86.40;;;;;;5052525;28;20575;-82
2023/04/12 11:45:17;;;;;;;;;;;11.60;86.40;;;;;;5054024;28;20034;-82
2023/04/12 11:47:43;;;;;;;;;;;11.60;86.00;;;;;;5053538;28;19909;-82
2023/04/12 11:50:09;;;;;;;;;;;11.80;85.90;;;;;;5059660;28;19917;-82
2023/04/12 11:52:35;;;;;;;;;;;12.00;85.50;;;;;;5052898;28;19915;-82
2023/04/12 11:55:03;;;;;;;;;;;12.10;84.80;;;;;;5073142;28;19916;-82
2023/04/12 11:57:29;;;;;;;;;;;12.30;85.20;;;;;;5073419;28;19908;-82
2023/04/12 11:59:55;;;;;;;;;;;12.30;84.40;;;;;;5074491;28;19935;-83
2023/04/12 12:02:21;;;;;;;;;;;12.20;84.40;;;;;;5073725;28;19916;-82
2023/04/12 12:04:47;;;;;;;;;;;12.10;84.50;;;;;;5046830;28;19909;-82
2023/04/12 12:07:14;;;;;;;;;;;12.10;84.60;;;;;;5052156;28;19991;-81
2023/04/12 12:09:40;;;;;;;;;;;12.00;84.40;;;;;;5050347;28;19916;-82
2023/04/12 12:12:05;;;;;;;;;;;11.90;84.70;;;;;;5052426;28;19908;-82
2023/04/12 12:14:32;;;;;;;;;;;11.80;85.30;;;;;;5063390;28;19919;-82
2023/04/12 12:16:58;;;;;;;;;;;11.90;85.60;;;;;;5072734;28;19908;-82
2023/04/12 12:19:26;;;;;;;;;;;11.90;82.70;;;;;;5065995;28;19913;-82
2023/04/12 12:21:52;;;;;;;;;;;11.90;81.00;;;;;;5048000;28;20309;-82
2023/04/12 12:24:17;;;;;;;;;;;12.00;80.10;;;;;;5056318;28;19916;-82
2023/04/12 12:26:43;;;;;;;;;;;12.20;79.70;;;;;;5053646;28;20007;-82
2023/04/12 12:29:15;;;;;;;;;;;12.20;75.90;;;;;;5053619;28;19962;-82
2023/04/12 12:31:44;;;;;;;;;;;12.40;77.40;;;;;;5054678;28;20351;-82
2023/04/12 12:34:11;;;;;;;;;;;12.50;74.40;;;;;;5055412;28;20350;-82
2023/04/12 12:36:37;;;;;;;;;;;12.70;75.60;;;;;;5053775;28;19976;-82
2023/04/12 12:39:09;;;;;;;;;;;12.80;73.20;;;;;;5051674;28;19995;-83
2023/04/12 12:41:34;;;;;;;;;;;12.80;74.90;;;;;;5049926;28;20332;-80
2023/04/12 12:44:00;;;;;;;;;;;12.70;75.10;;;;;;5050600;28;19920;-82
2023/04/12 12:46:25;;;;;;;;;;;12.70;74.20;;;;;;5053806;28;19913;-82
2023/04/12 12:48:51;;;;;;;;;;;12.50;74.60;;;;;;5050429;28;19963;-82
2023/04/12 12:51:18;;;;;;;;;;;12.70;73.80;;;;;;5052713;28;19920;-82
2023/04/12 12:53:43;;;;;;;;;;;12.80;73.50;;;;;;5053713;28;19919;-82
2023/04/12 12:56:10;;;;;;;;;;;12.80;73.10;;;;;;5052628;28;20000;-82
2023/04/12 12:58:35;;;;;;;;;;;12.70;72.90;;;;;;5055351;28;20366;-83
2023/04/12 13:01:01;;;;;;;;;;;12.80;74.00;;;;;;5053055;28;19928;-82
2023/04/12 13:03:27;;;;;;;;;;;12.90;71.90;;;;;;5050528;28;19917;-82
2023/04/12 13:05:52;;;;;;;;;;;13.00;72.40;;;;;;5046386;28;19912;-82
2023/04/12 13:08:17;;;;;;;;;;;12.90;71.40;;;;;;5050075;28;19913;-82
2023/04/12 13:10:43;;;;;;;;;;;12.90;70.20;;;;;;5061545;28;19924;-84
2023/04/12 13:13:08;;;;;;;;;;;13.10;72.40;;;;;;5055822;28;19927;-84
2023/04/12 13:15:34;;;;;;;;;;;13.20;71.30;;;;;;5049583;28;20341;-83
2023/04/12 13:18:00;;;;;;;;;;;13.30;70.60;;;;;;5051581;28;19913;-83
2023/04/12 13:20:26;;;;;;;;;;;13.40;71.30;;;;;;5050388;28;19932;-83
2023/04/12 13:22:52;;;;;;;;;;;13.50;68.80;;;;;;5048095;28;19913;-83
2023/04/12 13:25:20;;;;;;;;;;;13.70;70.40;;;;;;5049986;28;20760;-83
2023/04/12 13:27:50;;;;;;;;;;;13.70;70.40;;;;;;5049906;28;19919;-83
2023/04/12 13:30:16;;;;;;;;;;;13.80;67.30;;;;;;5047855;28;20007;-84
2023/04/12 13:32:43;;;;;;;;;;;14.00;67.40;;;;;;5049976;28;19967;-83
2023/04/12 13:35:09;;;;;;;;;;;13.80;66.60;;;;;;5052496;28;20366;-84
2023/04/12 13:37:34;;;;;;;;;;;13.80;67.00;;;;;;5063395;28;19939;-84
2023/04/12 13:39:59;;;;;;;;;;;13.70;68.50;;;;;;5054535;28;20383;-84
2023/04/12 13:42:25;;;;;;;;;;;13.90;69.80;;;;;;5051256;28;21802;-83
2023/04/12 13:44:50;;;;;;;;;;;13.70;66.60;;;;;;5053975;28;19917;-84
2023/04/12 13:47:19;;;;;;;;;;;13.60;66.40;;;;;;5051987;28;19923;-81
2023/04/12 13:49:44;;;;;;;;;;;13.50;66.20;;;;;;5053734;28;19917;-84
2023/04/12 13:52:10;;;;;;;;;;;13.40;65.50;;;;;;5047568;28;20338;-83
2023/04/12 13:54:36;;;;;;;;;;;13.20;67.10;;;;;;5052103;28;19920;-83
2023/04/12 13:57:02;;;;;;;;;;;13.20;67.70;;;;;;5053997;28;20377;-83
2023/04/12 13:59:28;;;;;;;;;;;13.50;68.20;;;;;;5053133;28;20029;-83
2023/04/12 14:01:53;;;;;;;;;;;13.60;67.20;;;;;;5051534;28;19967;-82
2023/04/12 14:04:19;;;;;;;;;;;13.80;66.80;;;;;;5052846;28;19921;-82
2023/04/12 14:06:44;;;;;;;;;;;13.80;67.90;;;;;;5052446;28;19912;-82
2023/04/12 14:09:26;;;;;;;;;;;13.60;67.10;;;;;;5052379;28;19935;-82
2023/04/12 14:11:54;;;;;;;;;;;13.70;66.50;;;;;;5051463;28;20293;-82
2023/04/12 14:14:19;;;;;;;;;;;13.60;65.90;;;;;;5054199;28;20371;-81
2023/04/12 14:16:45;;;;;;;;;;;13.50;65.10;;;;;;5049456;28;19932;-83
2023/04/12 14:19:10;;;;;;;;;;;13.60;64.20;;;;;;5056217;28;19977;-83
2023/04/12 14:21:36;;;;;;;;;;;13.60;65.60;;;;;;5054409;28;19931;-84